Accueil
METAR-TAF:

METAR-TAF

Aéroports :

Aéroport international de Douchanbé

Douchanbé, Tadjikistan

latitude: 38-33N, longitude: 068-47E, altitude: 803 m

Observation

Le bulletin a été fait il y a 35 minutes, à 02:00 UTC
Vent calme
Température 6°C
Humidité 75%
Pression 1024 hPa
Visibilité: 7000 m

METAR: UTDD 210200Z 00000MPS 7000 NSC 06/02 Q1024 R09/D NOSIG RMK QFE699/0932

Heure: 07:35 (02:35 UTC)

Prévision

Le bulletin a été fait il y a 2 heures et 35 minutes, à 00:00 UTC
Prévision valable du 21 à 01 UTC au 21 à 13 UTC
Vent 4 kt de direction variable
Visibilité: 3100 m
Quelques nuages à une hauteur de 6600 ft
Nuages épars à une hauteur de 15000 ft
brume, fumée
Evoluant progressivement
du 21 à 04 UTC au 21 à 06 UTC
Visibilité: 6000 m

TAF: UTDD 210000Z 2101/2113 VRB02MPS 3100 BR FU FEW066 SCT150 BECMG 2104/2106 6000

Observations et prévisions météorologiques de plus de 4000 aéroports (messages METAR et TAF).

Les stations disponibles sont représentées par des disques jaunes et rouges sur la carte.

Passer la souris dessus pour voir le nom de la station.

Cliquer dessus pour voir les observations et prévisions météorologiques.

Pour changer de carte: cliquez sur les boutons verts avec une croix noire pour zoomer, sur le bouton vert avec un tiret pour effectuer un zoom arrière, ou sur les flèches vertes pour les cartes adjacentes.


METAR-TAF: